Time;durP1;ratioP1;P1;durP2;ratioP2;P2;SDS_P1;SDS_P2;PMS_P1;PMS_P2;Temp;Humidity;BMP_temperature;BMP_pressure;BME280_temperature;BME280_humidity;BME280_pressure;Samples;Min_cycle;Max_cycle;Signal;HPM_P1;HPM_P2
2023/05/17 00:00:05;;;;;;;4.70;1.97;;;;;;;6.88;100.00;101522.44;684889;28;1245;-58
2023/05/17 00:00:26;;;;;;;4.38;1.80;;;;;;;6.87;100.00;101518.09;686227;28;885;-59
2023/05/17 00:00:46;;;;;;;5.37;2.00;;;;;;;6.87;100.00;101515.47;682605;28;4503;-58
2023/05/17 00:01:06;;;;;;;6.18;2.03;;;;;;;6.86;100.00;101518.94;687272;28;822;-59
2023/05/17 00:01:27;;;;;;;4.57;2.03;;;;;;;6.85;100.00;101515.44;686399;28;1283;-58
2023/05/17 00:01:47;;;;;;;5.60;2.28;;;;;;;6.83;100.00;101519.75;686072;28;1423;-57
2023/05/17 00:02:07;;;;;;;5.10;2.03;;;;;;;6.80;100.00;101523.16;687094;28;1267;-58
2023/05/17 00:02:28;;;;;;;4.07;1.90;;;;;;;6.80;100.00;101524.88;684279;28;1213;-59
2023/05/17 00:02:48;;;;;;;4.95;2.17;;;;;;;6.80;100.00;101524.88;683588;28;1457;-59
2023/05/17 00:03:08;;;;;;;4.33;2.10;;;;;;;6.79;100.00;101518.78;684328;28;1910;-59
2023/05/17 00:03:29;;;;;;;5.15;1.90;;;;;;;6.77;100.00;101520.47;684186;28;913;-59
2023/05/17 00:03:52;;;;;;;5.87;1.97;;;;;;;6.76;100.00;101525.66;682652;28;4275;-58
2023/05/17 00:04:15;;;;;;;4.03;1.80;;;;;;;6.75;100.00;101518.69;685104;28;874;-59
2023/05/17 00:04:36;;;;;;;5.80;1.88;;;;;;;6.70;100.00;101518.56;687100;28;912;-59
2023/05/17 00:04:56;;;;;;;5.47;2.00;;;;;;;6.70;100.00;101518.56;686217;28;1557;-58
2023/05/17 00:05:16;;;;;;;4.90;2.00;;;;;;;6.70;100.00;101523.78;687670;28;912;-59
2023/05/17 00:05:37;;;;;;;4.30;1.80;;;;;;;6.70;100.00;101517.69;686793;28;818;-59
2023/05/17 00:05:59;;;;;;;4.57;1.90;;;;;;;6.70;100.00;101523.78;686352;28;1541;-59
2023/05/17 00:06:20;;;;;;;4.13;1.80;;;;;;;6.68;100.00;101520.25;687383;28;1320;-59
2023/05/17 00:06:40;;;;;;;5.10;1.90;;;;;;;6.69;100.00;101521.13;686469;28;4853;-58
2023/05/17 00:07:01;;;;;;;4.70;1.88;;;;;;;6.70;100.00;101528.97;686123;28;1494;-59
2023/05/17 00:07:21;;;;;;;3.40;1.77;;;;;;;6.71;100.00;101525.50;684588;28;1270;-59
2023/05/17 00:07:41;;;;;;;3.47;1.80;;;;;;;6.71;100.00;101520.31;684191;28;878;-58
2023/05/17 00:08:02;;;;;;;5.43;2.03;;;;;;;6.68;100.00;101525.44;683048;28;1127;-59
2023/05/17 00:08:22;;;;;;;5.23;2.17;;;;;;;6.67;100.00;101525.41;684732;28;1033;-58
2023/05/17 00:08:42;;;;;;;3.70;1.90;;;;;;;6.68;100.00;101524.56;684666;28;985;-59
2023/05/17 00:09:03;;;;;;;5.28;2.13;;;;;;;6.68;100.00;101520.25;681705;28;833;-58
2023/05/17 00:09:23;;;;;;;5.60;2.10;;;;;;;6.69;100.00;101521.13;685203;28;806;-58
2023/05/17 00:09:44;;;;;;;5.53;1.93;;;;;;;6.69;100.00;101522.00;683775;28;4413;-58
2023/05/17 00:10:05;;;;;;;4.40;1.90;;;;;;;6.70;100.00;101518.56;688188;28;1349;-59
2023/05/17 00:10:25;;;;;;;4.95;1.98;;;;;;;6.69;100.00;101519.41;687935;28;963;-58
2023/05/17 00:10:48;;;;;;;4.93;2.00;;;;;;;6.70;100.00;101522.88;686959;28;1715;-58
2023/05/17 00:11:08;;;;;;;3.80;1.92;;;;;;;6.69;100.00;101519.41;689647;28;1290;-58
2023/05/17 00:11:31;;;;;;;4.90;2.00;;;;;;;6.69;100.00;101522.00;690082;28;913;-58
2023/05/17 00:11:54;;;;;;;4.30;1.77;;;;;;;6.70;100.00;101525.47;687987;28;1556;-58
2023/05/17 00:12:14;;;;;;;5.28;1.90;;;;;;;6.70;100.00;101523.78;689878;28;853;-58
2023/05/17 00:12:34;;;;;;;3.97;1.90;;;;;;;6.70;100.00;101520.28;689632;28;1458;-59
2023/05/17 00:12:55;;;;;;;5.00;1.80;;;;;;;6.71;100.00;101519.44;687694;28;4396;-58
2023/05/17 00:13:15;;;;;;;5.60;2.40;;;;;;;6.71;100.00;101520.31;689754;28;726;-58
2023/05/17 00:13:36;;;;;;;4.40;2.05;;;;;;;6.70;100.00;101526.38;689959;28;969;-59
2023/05/17 00:13:57;;;;;;;5.90;2.00;;;;;;;6.70;100.00;101517.69;687628;28;1462;-59
2023/05/17 00:14:17;;;;;;;5.60;2.07;;;;;;;6.70;100.00;101520.28;689830;28;1283;-57
2023/05/17 00:14:38;;;;;;;5.70;2.00;;;;;;;6.70;100.00;101522.88;689743;28;1182;-58
2023/05/17 00:14:58;;;;;;;5.23;1.83;;;;;;;6.70;100.00;101515.09;688881;28;1493;-58
2023/05/17 00:15:18;;;;;;;4.75;2.08;;;;;;;6.69;100.00;101522.00;690013;28;989;-58
2023/05/17 00:15:39;;;;;;;4.80;2.20;;;;;;;6.70;100.00;101520.28;689838;28;4499;-58
2023/05/17 00:15:59;;;;;;;5.10;1.83;;;;;;;6.70;100.00;101523.78;685074;28;1493;-58
2023/05/17 00:16:19;;;;;;;5.83;1.70;;;;;;;6.70;100.00;101528.06;686558;28;3302;-58
2023/05/17 00:16:40;;;;;;;4.70;1.83;;;;;;;6.70;100.00;101518.56;687073;28;805;-58
2023/05/17 00:17:00;;;;;;;4.00;1.90;;;;;;;6.69;100.00;101515.91;685902;28;1555;-58
2023/05/17 00:17:21;;;;;;;3.90;1.80;;;;;;;6.68;100.00;101515.03;686836;28;897;-58
2023/05/17 00:17:41;;;;;;;4.50;2.00;;;;;;;6.69;100.00;101518.50;687240;28;1409;-58
2023/05/17 00:18:01;;;;;;;5.97;2.20;;;;;;;6.70;100.00;101517.69;685162;28;1861;-58
2023/05/17 00:18:22;;;;;;;5.32;2.20;;;;;;;6.68;100.00;101519.38;684272;28;846;-58
2023/05/17 00:18:42;;;;;;;5.67;2.10;;;;;;;6.67;100.00;101521.06;683969;28;4901;-59
2023/05/17 00:19:02;;;;;;;5.17;2.10;;;;;;;6.65;100.00;101518.44;680499;28;1708;-58
2023/05/17 00:19:22;;;;;;;4.72;1.90;;;;;;;6.65;100.00;101517.56;681644;29;1221;-58
2023/05/17 00:19:46;;;;;;;5.77;1.97;;;;;;;6.64;100.00;101521.88;682087;28;956;-58
2023/05/17 00:20:07;;;;;;;5.53;2.20;;;;;;;6.63;100.00;101516.66;682663;28;964;-59
2023/05/17 00:20:28;;;;;;;6.32;2.20;;;;;;;6.63;100.00;101514.03;684145;28;1183;-58
2023/05/17 00:20:48;;;;;;;6.13;1.95;;;;;;;6.62;100.00;101515.78;682638;28;1319;-58
2023/05/17 00:21:08;;;;;;;5.93;1.98;;;;;;;6.61;100.00;101519.22;685255;28;920;-59
2023/05/17 00:21:31;;;;;;;4.30;1.93;;;;;;;6.61;100.00;101518.34;684659;28;1238;-58
2023/05/17 00:21:51;;;;;;;4.03;1.95;;;;;;;6.61;100.00;101519.22;685692;28;4294;-58
2023/05/17 00:22:12;;;;;;;4.20;1.93;;;;;;;6.61;100.00;101515.75;684029;28;834;-58
2023/05/17 00:22:32;;;;;;;4.90;2.00;;;;;;;6.56;100.00;101509.53;685251;28;1212;-59
2023/05/17 00:22:52;;;;;;;5.93;2.07;;;;;;;6.55;100.00;101520.75;683263;28;1486;-59
2023/05/17 00:23:13;;;;;;;5.67;2.10;;;;;;;6.54;100.00;101522.50;683523;28;1903;-59
2023/05/17 00:23:33;;;;;;;5.35;2.00;;;;;;;6.53;100.00;101519.88;683994;28;1052;-59
2023/05/17 00:23:53;;;;;;;4.37;2.00;;;;;;;6.52;100.00;101513.81;683447;28;1521;-58
2023/05/17 00:24:14;;;;;;;5.35;2.38;;;;;;;6.52;100.00;101525.88;686341;28;1386;-59
2023/05/17 00:24:34;;;;;;;6.33;2.50;;;;;;;6.52;100.00;101524.19;686776;28;874;-58
2023/05/17 00:24:55;;;;;;;4.80;2.03;;;;;;;6.52;100.00;101519.00;685514;28;4359;-59
2023/05/17 00:25:15;;;;;;;4.03;1.93;;;;;;;6.52;100.00;101518.09;684322;28;909;-59
2023/05/17 00:25:35;;;;;;;5.10;2.00;;;;;;;6.51;100.00;101516.31;681886;29;850;-58
2023/05/17 00:25:56;;;;;;;3.83;1.98;;;;;;;6.50;100.00;101527.59;680698;28;1728;-58
2023/05/17 00:26:16;;;;;;;4.17;1.90;;;;;;;6.45;100.00;101515.34;681840;29;839;-59
2023/05/17 00:26:37;;;;;;;3.75;1.75;;;;;;;6.46;100.00;101524.88;681678;29;842;-58
2023/05/17 00:26:57;;;;;;;4.23;1.90;;;;;;;6.44;100.00;101518.78;681009;28;1562;-59
2023/05/17 00:27:18;;;;;;;4.53;1.90;;;;;;;6.44;100.00;101520.50;684387;28;1259;-58
2023/05/17 00:27:38;;;;;;;4.40;2.05;;;;;;;6.44;100.00;101516.19;683833;28;4499;-58
2023/05/17 00:27:59;;;;;;;4.80;2.10;;;;;;;6.44;100.00;101518.78;682611;28;1504;-59
2023/05/17 00:28:21;;;;;;;5.20;2.10;;;;;;;6.44;100.00;101521.38;681939;28;1427;-58
2023/05/17 00:28:41;;;;;;;4.97;2.00;;;;;;;6.43;100.00;101521.34;681873;28;961;-58
2023/05/17 00:29:04;;;;;;;4.90;2.20;;;;;;;6.43;100.00;101517.03;680672;28;1506;-58
2023/05/17 00:29:24;;;;;;;5.47;2.38;;;;;;;6.42;100.00;101522.19;680471;29;2086;-58
2023/05/17 00:29:47;;;;;;;4.13;2.00;;;;;;;6.40;100.00;101519.53;681341;28;1703;-59
2023/05/17 00:30:08;;;;;;;4.97;2.00;;;;;;;6.40;100.00;101516.94;682880;28;818;-59
2023/05/17 00:30:30;;;;;;;5.53;2.15;;;;;;;6.40;100.00;101513.47;683954;28;1252;-58
2023/05/17 00:30:50;;;;;;;5.37;2.07;;;;;;;6.40;100.00;101514.34;682735;28;4520;-59
2023/05/17 00:31:11;;;;;;;5.50;2.10;;;;;;;6.41;100.00;101520.41;685089;28;925;-58
2023/05/17 00:31:31;;;;;;;4.13;2.10;;;;;;;6.39;100.00;101515.19;685396;28;3481;-60
2023/05/17 00:31:54;;;;;;;3.78;1.80;;;;;;;6.39;100.00;101522.97;680314;28;1570;-58
2023/05/17 00:32:15;;;;;;;5.30;2.10;;;;;;;6.37;100.00;101518.56;681708;28;1252;-56
2023/05/17 00:32:35;;;;;;;5.53;2.07;;;;;;;6.35;100.00;101518.53;684027;28;1102;-58
2023/05/17 00:32:56;;;;;;;5.00;1.90;;;;;;;6.36;100.00;101522.91;683987;28;1549;-58
2023/05/17 00:33:16;;;;;;;6.07;2.20;;;;;;;6.38;100.00;101525.53;683086;28;929;-59
2023/05/17 00:33:36;;;;;;;4.95;2.00;;;;;;;6.38;100.00;101520.34;683929;28;4302;-59
2023/05/17 00:33:57;;;;;;;4.60;2.03;;;;;;;6.37;100.00;101514.28;685233;28;1718;-59
2023/05/17 00:34:17;;;;;;;5.78;2.20;;;;;;;6.38;100.00;101529.00;688499;28;794;-58
2023/05/17 00:34:38;;;;;;;5.23;1.93;;;;;;;6.40;100.00;101519.53;683411;28;1325;-59
2023/05/17 00:34:58;;;;;;;4.68;1.95;;;;;;;6.43;100.00;101519.63;685088;28;1521;-59
2023/05/17 00:35:18;;;;;;;5.10;2.00;;;;;;;6.41;100.00;101529.09;689926;28;1457;-58
2023/05/17 00:35:39;;;;;;;5.30;1.90;;;;;;;6.40;100.00;101524.75;691155;28;1118;-58
2023/05/17 00:35:59;;;;;;;5.47;2.07;;;;;;;6.39;100.00;101525.56;687705;28;1589;-58
2023/05/17 00:36:20;;;;;;;5.57;2.20;;;;;;;6.39;100.00;101528.16;687673;28;845;-58
2023/05/17 00:36:40;;;;;;;5.73;1.97;;;;;;;6.39;100.00;101527.31;686964;28;4433;-59
2023/05/17 00:37:02;;;;;;;7.35;2.25;;;;;;;6.35;100.00;101520.25;687514;28;1474;-59
2023/05/17 00:37:22;;;;;;;6.73;2.30;;;;;;;6.30;100.00;101522.75;687058;28;854;-58
2023/05/17 00:37:46;;;;;;;4.77;1.97;;;;;;;6.29;100.00;101526.19;684914;28;1343;-58
2023/05/17 00:38:06;;;;;;;4.70;2.13;;;;;;;6.30;100.00;101527.94;687092;28;927;-58
2023/05/17 00:38:27;;;;;;;5.17;2.10;;;;;;;6.31;100.00;101514.09;686460;28;1260;-58
2023/05/17 00:38:47;;;;;;;5.13;1.93;;;;;;;6.29;100.00;101521.84;685165;28;4874;-59
2023/05/17 00:39:07;;;;;;;5.43;1.92;;;;;;;6.31;100.00;101527.09;687015;28;1184;-58
2023/05/17 00:39:28;;;;;;;5.43;2.07;;;;;;;6.31;100.00;101532.28;684362;28;972;-59
2023/05/17 00:39:48;;;;;;;5.50;2.23;;;;;;;6.30;100.00;101526.22;682668;28;4695;-59
2023/05/17 00:40:09;;;;;;;5.32;2.40;;;;;;;6.29;100.00;101523.59;684114;28;893;-58
2023/05/17 00:40:30;;;;;;;4.72;2.05;;;;;;;6.29;100.00;101527.03;683931;28;1268;-58
2023/05/17 00:40:52;;;;;;;4.93;1.90;;;;;;;6.30;100.00;101525.34;682983;28;1441;-59
2023/05/17 00:41:13;;;;;;;5.82;2.20;;;;;;;6.30;100.00;101526.22;684861;28;1047;-58
2023/05/17 00:41:33;;;;;;;4.25;1.90;;;;;;;6.29;100.00;101526.19;686806;28;1178;-59
2023/05/17 00:41:54;;;;;;;4.60;2.10;;;;;;;6.29;100.00;101529.63;685517;28;1246;-58
2023/05/17 00:42:16;;;;;;;6.47;2.38;;;;;;;6.29;100.00;101524.44;684143;28;1138;-59
2023/05/17 00:42:37;;;;;;;4.05;2.00;;;;;;;6.29;100.00;101521.00;683395;28;4372;-58
2023/05/17 00:42:57;;;;;;;5.00;2.20;;;;;;;6.30;100.00;101527.94;680225;28;1435;-59
2023/05/17 00:43:17;;;;;;;4.67;2.03;;;;;;;6.29;100.00;101521.00;681327;28;1919;-58
2023/05/17 00:43:38;;;;;;;5.40;2.13;;;;;;;6.31;100.00;101529.69;682011;28;1011;-58
2023/05/17 00:43:59;;;;;;;4.68;2.17;;;;;;;6.31;100.00;101529.69;684289;28;1483;-58
2023/05/17 00:44:19;;;;;;;4.47;1.93;;;;;;;6.30;100.00;101522.75;687172;28;806;-59
2023/05/17 00:44:40;;;;;;;6.28;2.05;;;;;;;6.28;100.00;101521.81;686945;28;1298;-58
2023/05/17 00:45:00;;;;;;;4.67;2.00;;;;;;;6.30;100.00;101527.94;686047;28;1262;-59
2023/05/17 00:45:21;;;;;;;4.35;2.20;;;;;;;6.28;100.00;101524.41;684398;28;1383;-59
2023/05/17 00:45:41;;;;;;;5.50;2.30;;;;;;;6.31;100.00;101527.09;681982;28;4387;-58
2023/05/17 00:46:01;;;;;;;5.43;2.17;;;;;;;6.35;100.00;101525.47;679415;28;1487;-58
2023/05/17 00:46:22;;;;;;;4.37;2.00;;;;;;;6.33;100.00;101525.41;681098;29;1387;-59
2023/05/17 00:46:42;;;;;;;4.53;2.03;;;;;;;6.35;100.00;101526.31;680437;28;925;-59
2023/05/17 00:47:03;;;;;;;4.23;2.00;;;;;;;6.35;100.00;101522.84;684467;28;1608;-58
2023/05/17 00:47:24;;;;;;;3.80;1.83;;;;;;;6.36;100.00;101525.50;687177;28;921;-58
2023/05/17 00:47:45;;;;;;;5.47;2.20;;;;;;;6.35;100.00;101521.13;685622;28;1600;-58
2023/05/17 00:48:05;;;;;;;6.60;2.05;;;;;;;6.31;100.00;101519.28;687159;28;1378;-59
2023/05/17 00:48:27;;;;;;;6.67;1.90;;;;;;;6.29;100.00;101518.38;686549;28;1210;-57
2023/05/17 00:48:48;;;;;;;6.00;2.17;;;;;;;6.29;100.00;101519.25;684895;28;4514;-59
2023/05/17 00:49:09;;;;;;;4.75;2.20;;;;;;;6.30;100.00;101520.16;684251;28;1278;-58
2023/05/17 00:49:30;;;;;;;4.07;2.03;;;;;;;6.31;100.00;101529.69;685079;28;1201;-58
2023/05/17 00:49:50;;;;;;;3.85;2.10;;;;;;;6.30;100.00;101522.75;682887;28;1503;-59
2023/05/17 00:50:11;;;;;;;5.67;2.23;;;;;;;6.30;100.00;101520.16;684482;28;1336;-59
2023/05/17 00:50:31;;;;;;;5.85;2.35;;;;;;;6.29;100.00;101521.00;684359;28;960;-59
2023/05/17 00:50:52;;;;;;;7.13;2.40;;;;;;;6.30;100.00;101514.97;681990;28;1644;-59
2023/05/17 00:51:14;;;;;;;7.03;2.08;;;;;;;6.30;100.00;101517.56;682034;28;1229;-59
2023/05/17 00:51:35;;;;;;;4.95;1.98;;;;;;;6.32;100.00;101518.47;678655;29;1384;-59
2023/05/17 00:51:55;;;;;;;5.43;2.00;;;;;;;6.28;100.00;101522.69;680285;28;4324;-59
2023/05/17 00:52:15;;;;;;;4.40;1.85;;;;;;;6.26;100.00;101521.78;682852;28;1100;-59
2023/05/17 00:52:37;;;;;;;5.50;2.00;;;;;;;6.27;100.00;101517.44;682760;28;924;-59
2023/05/17 00:52:57;;;;;;;4.00;1.92;;;;;;;6.26;100.00;101526.09;679684;28;2002;-59
2023/05/17 00:53:18;;;;;;;5.20;2.20;;;;;;;6.25;100.00;101522.59;681901;28;1217;-59
2023/05/17 00:53:39;;;;;;;5.47;2.30;;;;;;;6.21;100.00;101520.75;684509;28;1209;-59
2023/05/17 00:53:59;;;;;;;4.05;2.03;;;;;;;6.20;100.00;101520.72;681344;28;1110;-58
2023/05/17 00:54:21;;;;;;;4.63;2.20;;;;;;;6.20;100.00;101521.59;681308;28;1348;-59
2023/05/17 00:54:42;;;;;;;5.43;2.15;;;;;;;6.21;100.00;101519.91;682532;28;4374;-59
2023/05/17 00:55:03;;;;;;;5.22;2.15;;;;;;;6.22;100.00;101524.25;680455;28;948;-59
2023/05/17 00:55:23;;;;;;;4.45;2.10;;;;;;;6.22;100.00;101521.66;682193;28;1359;-59
2023/05/17 00:55:48;;;;;;;4.10;1.90;;;;;;;6.21;100.00;101522.50;681057;28;1175;-58
2023/05/17 00:56:08;;;;;;;6.22;2.10;;;;;;;6.21;100.00;101527.69;682486;28;1302;-58
2023/05/17 00:56:30;;;;;;;5.17;2.03;;;;;;;6.20;100.00;101520.72;682066;28;1585;-59
2023/05/17 00:56:52;;;;;;;4.53;1.98;;;;;;;6.22;100.00;101519.94;682746;28;1561;-59
2023/05/17 00:57:13;;;;;;;4.88;2.35;;;;;;;6.22;100.00;101525.13;682297;28;1299;-59
2023/05/17 00:57:34;;;;;;;4.55;2.40;;;;;;;6.22;100.00;101522.53;679782;29;1264;-59
2023/05/17 00:57:55;;;;;;;4.63;2.05;;;;;;;6.23;100.00;101520.81;679757;28;4499;-59
2023/05/17 00:58:16;;;;;;;5.50;1.88;;;;;;;6.23;100.00;101523.41;680416;29;2044;-59
2023/05/17 00:58:37;;;;;;;5.50;2.00;;;;;;;6.23;100.00;101523.41;678797;29;1116;-59
2023/05/17 00:58:59;;;;;;;5.00;2.00;;;;;;;6.23;100.00;101516.50;678127;29;1496;-59
2023/05/17 00:59:21;;;;;;;4.25;1.90;;;;;;;6.23;100.00;101526.00;677015;29;1297;-59
2023/05/17 00:59:43;;;;;;;4.63;2.00;;;;;;;6.21;100.00;101522.50;675621;29;1351;-59
2023/05/17 01:00:04;;;;;;;6.63;2.22;;;;;;;6.20;100.00;101523.31;676909;29;1612;-59
2023/05/17 01:00:25;;;;;;;4.53;1.90;;;;;;;6.20;100.00;101520.72;678555;29;901;-59
2023/05/17 01:00:47;;;;;;;4.15;2.10;;;;;;;6.21;100.00;101522.50;677318;29;4524;-59
2023/05/17 01:01:07;;;;;;;5.47;2.30;;;;;;;6.19;100.00;101513.78;682376;28;1240;-59
2023/05/17 01:01:28;;;;;;;4.80;2.30;;;;;;;6.19;100.00;101524.16;684557;28;802;-59
2023/05/17 01:01:50;;;;;;;3.95;2.00;;;;;;;6.20;100.00;101520.72;682671;28;1459;-59
2023/05/17 01:02:11;;;;;;;6.22;2.30;;;;;;;6.19;100.00;101522.47;683960;28;1164;-59
2023/05/17 01:02:33;;;;;;;6.13;2.30;;;;;;;6.20;100.00;101520.72;684843;28;1271;-59
2023/05/17 01:02:55;;;;;;;6.03;2.10;;;;;;;6.19;100.00;101521.56;683860;28;1563;-59
2023/05/17 01:03:16;;;;;;;5.38;2.15;;;;;;;6.16;100.00;101522.34;685957;28;1906;-59
2023/05/17 01:03:37;;;;;;;5.28;1.98;;;;;;;6.14;100.00;101522.31;685603;28;4493;-59
2023/05/17 01:03:57;;;;;;;5.75;2.10;;;;;;;6.13;100.00;101525.78;686195;28;1611;-59
2023/05/17 01:04:18;;;;;;;4.47;2.10;;;;;;;6.13;100.00;101524.88;688806;28;862;-59
2023/05/17 01:04:41;;;;;;;4.32;2.08;;;;;;;6.13;100.00;101522.28;686901;28;1491;-59
2023/05/17 01:05:01;;;;;;;4.65;2.20;;;;;;;6.15;100.00;101523.22;688411;28;1579;-60
2023/05/17 01:05:21;;;;;;;4.85;1.95;;;;;;;6.17;100.00;101526.72;689961;28;948;-59
2023/05/17 01:05:42;;;;;;;4.40;1.80;;;;;;;6.17;100.00;101525.84;689713;28;909;-59
2023/05/17 01:06:04;;;;;;;4.80;2.00;;;;;;;6.16;100.00;101519.75;688389;28;1684;-59
2023/05/17 01:06:25;;;;;;;4.55;2.13;;;;;;;6.14;100.00;101522.31;690181;28;806;-59
2023/05/17 01:06:46;;;;;;;4.00;2.00;;;;;;;6.17;100.00;101525.84;686065;28;4495;-59
2023/05/17 01:07:08;;;;;;;3.63;2.00;;;;;;;6.16;100.00;101527.53;687124;28;1156;-59
2023/05/17 01:07:28;;;;;;;5.20;2.10;;;;;;;6.12;100.00;101529.19;686984;28;1268;-59
2023/05/17 01:07:49;;;;;;;5.53;2.15;;;;;;;6.10;100.00;101524.78;684617;28;1656;-59
2023/05/17 01:08:09;;;;;;;4.13;2.00;;;;;;;6.09;100.00;101517.84;686698;28;953;-59
2023/05/17 01:08:30;;;;;;;4.28;1.95;;;;;;;6.11;100.00;101526.56;687503;28;1009;-59
2023/05/17 01:08:50;;;;;;;4.53;2.37;;;;;;;6.10;100.00;101523.06;688258;28;1445;-59
2023/05/17 01:09:11;;;;;;;4.88;2.15;;;;;;;6.12;100.00;101524.00;686927;28;830;-59
2023/05/17 01:09:33;;;;;;;5.35;2.38;;;;;;;6.14;100.00;101521.44;686714;28;1276;-59
2023/05/17 01:09:54;;;;;;;5.63;2.25;;;;;;;6.16;100.00;101524.06;687684;28;4621;-58
2023/05/17 01:10:15;;;;;;;4.68;2.10;;;;;;;6.16;100.00;101526.69;686748;28;1311;-59
2023/05/17 01:11:12;;;;;;;4.87;2.10;;;;;;;6.14;100.00;101524.91;684336;28;1357;-59
2023/05/17 01:11:51;;;;;;;6.43;2.20;;;;;;;6.13;100.00;101528.38;680105;29;1032;-57
2023/05/17 01:12:44;;;;;;;5.20;2.10;;;;;;;6.13;100.00;101532.66;682619;28;1032;-59
2023/05/17 01:13:09;;;;;;;5.18;2.22;;;;;;;6.10;100.00;101530.84;684956;28;5077;-59
2023/05/17 01:13:54;;;;;;;6.18;2.20;;;;;;;6.10;100.00;101524.78;686272;28;1263;-58
2023/05/17 01:14:31;;;;;;;7.88;2.38;;;;;;;6.10;100.00;101533.44;683846;28;2209;-59
2023/05/17 01:14:59;;;;;;;4.88;2.10;;;;;;;6.08;100.00;101536.88;680888;28;1613;-59
2023/05/17 01:15:33;;;;;;;4.30;2.08;;;;;;;6.09;100.00;101529.13;684422;28;1409;-59
2023/05/17 01:16:06;;;;;;;5.25;2.28;;;;;;;6.09;100.00;101528.22;682170;28;4536;-59
2023/05/17 01:16:40;;;;;;;3.85;2.05;;;;;;;6.05;100.00;101529.88;681557;29;951;-59
2023/05/17 01:17:05;;;;;;;4.80;2.10;;;;;;;6.04;100.00;101530.69;684523;28;1519;-59
2023/05/17 01:17:38;;;;;;;5.03;2.00;;;;;;;6.07;100.00;101533.38;684282;28;957;-59
2023/05/17 01:18:09;;;;;;;5.88;2.35;;;;;;;6.06;100.00;101533.34;683171;28;1586;-59
2023/05/17 01:18:39;;;;;;;4.53;2.03;;;;;;;6.03;100.00;101534.13;683823;28;1279;-59
2023/05/17 01:19:14;;;;;;;6.47;2.13;;;;;;;6.05;100.00;101532.47;684418;28;4909;-59
2023/05/17 01:20:00;;;;;;;5.78;2.40;;;;;;;6.03;100.00;101531.53;688108;28;1368;-59
2023/05/17 01:20:35;;;;;;;4.05;1.85;;;;;;;6.07;100.00;101532.50;688120;28;968;-59
2023/05/17 01:20:59;;;;;;;5.45;2.28;;;;;;;6.05;100.00;101536.75;686687;28;899;-58
2023/05/17 01:21:39;;;;;;;4.60;1.92;;;;;;;6.03;100.00;101541.03;689126;28;841;-58
2023/05/17 01:22:16;;;;;;;4.53;2.10;;;;;;;6.02;100.00;101540.16;684715;28;4883;-59
2023/05/17 01:23:04;;;;;;;5.13;2.03;;;;;;;6.00;100.00;101539.25;686613;28;2134;-59
2023/05/17 01:23:43;;;;;;;4.72;2.10;;;;;;;5.99;100.00;101536.59;687076;28;1079;-59
2023/05/17 01:24:32;;;;;;;4.90;2.25;;;;;;;5.91;100.00;101536.34;685987;28;1598;-59
2023/05/17 01:25:06;;;;;;;4.82;2.28;;;;;;;5.92;100.00;101545.91;684455;28;4509;-59
2023/05/17 01:25:45;;;;;;;4.72;2.15;;;;;;;5.93;100.00;101542.47;687175;28;929;-58
2023/05/17 01:26:20;;;;;;;5.50;1.98;;;;;;;5.92;100.00;101536.38;686229;28;1122;-59
2023/05/17 01:26:45;;;;;;;6.32;2.25;;;;;;;5.95;100.00;101540.78;686651;28;774;-59
2023/05/17 01:27:07;;;;;;;5.03;2.15;;;;;;;5.96;100.00;101542.56;682961;28;1589;-59
2023/05/17 01:27:29;;;;;;;5.90;2.20;;;;;;;5.97;100.00;101537.44;684865;28;950;-59
2023/05/17 01:27:53;;;;;;;7.30;2.38;;;;;;;5.99;100.00;101542.66;684161;28;4374;-59
2023/05/17 01:28:15;;;;;;;5.18;2.40;;;;;;;6.01;100.00;101546.19;684407;28;1291;-59
2023/05/17 01:28:40;;;;;;;6.15;2.38;;;;;;;6.01;100.00;101540.09;680984;28;1973;-59
2023/05/17 01:29:01;;;;;;;4.53;2.13;;;;;;;6.00;100.00;101538.38;682726;28;1601;-59
2023/05/17 01:29:25;;;;;;;4.40;2.10;;;;;;;6.02;100.00;101536.69;685524;28;810;-59
2023/05/17 01:29:48;;;;;;;4.50;2.05;;;;;;;6.04;100.00;101543.69;681333;28;1423;-59
2023/05/17 01:30:12;;;;;;;4.93;2.05;;;;;;;6.05;100.00;101540.25;683323;28;1313;-59
2023/05/17 01:30:33;;;;;;;4.70;2.10;;;;;;;6.05;100.00;101539.34;686349;28;1000;-59
2023/05/17 01:30:58;;;;;;;5.90;2.15;;;;;;;6.06;100.00;101539.41;684695;28;4661;-59
2023/05/17 01:31:19;;;;;;;5.07;2.10;;;;;;;6.05;100.00;101542.84;686695;28;1422;-59
2023/05/17 01:31:40;;;;;;;6.10;2.03;;;;;;;6.05;100.00;101542.84;686210;28;1593;-59
2023/05/17 01:32:02;;;;;;;7.35;2.20;;;;;;;6.06;100.00;101541.13;683829;28;1651;-59
2023/05/17 01:32:27;;;;;;;4.72;1.92;;;;;;;6.06;100.00;101539.41;684623;28;917;-59
2023/05/17 01:32:47;;;;;;;4.22;2.00;;;;;;;6.08;100.00;101548.13;684708;28;1478;-59
2023/05/17 01:33:08;;;;;;;4.97;2.00;;;;;;;6.09;100.00;101544.69;689022;28;1286;-59
2023/05/17 01:33:30;;;;;;;4.47;1.90;;;;;;;6.05;100.00;101545.44;689739;28;996;-58
2023/05/17 01:33:50;;;;;;;4.55;2.00;;;;;;;6.04;100.00;101541.09;686998;28;4500;-59
2023/05/17 01:34:11;;;;;;;4.35;2.03;;;;;;;6.03;100.00;101541.91;689133;28;969;-59
2023/05/17 01:34:33;;;;;;;4.05;1.90;;;;;;;6.08;100.00;101542.06;686293;28;1318;-59
2023/05/17 01:34:54;;;;;;;4.57;1.80;;;;;;;6.08;100.00;101537.75;681932;28;1467;-59
2023/05/17 01:35:14;;;;;;;4.30;2.10;;;;;;;6.09;100.00;101543.78;681267;29;865;-59
2023/05/17 01:35:35;;;;;;;4.25;1.95;;;;;;;6.08;100.00;101542.06;681689;29;933;-59
2023/05/17 01:35:55;;;;;;;4.97;2.23;;;;;;;6.08;100.00;101548.13;681680;28;1616;-59
2023/05/17 01:36:15;;;;;;;5.35;2.40;;;;;;;6.09;100.00;101542.09;685433;28;826;-58
2023/05/17 01:36:36;;;;;;;5.10;2.30;;;;;;;6.08;100.00;101545.53;684448;28;4310;-57
2023/05/17 01:36:57;;;;;;;5.07;2.30;;;;;;;6.09;100.00;101544.69;687161;28;1609;-59
2023/05/17 01:37:17;;;;;;;3.80;2.10;;;;;;;6.08;100.00;101545.53;687678;28;1571;-59
2023/05/17 01:37:38;;;;;;;4.40;2.30;;;;;;;6.08;100.00;101545.53;687212;28;1081;-59
2023/05/17 01:37:59;;;;;;;5.15;2.50;;;;;;;6.10;100.00;101535.19;685775;28;1574;-59
2023/05/17 01:38:19;;;;;;;4.22;2.08;;;;;;;6.11;100.00;101543.00;682626;28;1251;-58
2023/05/17 01:38:39;;;;;;;4.57;2.10;;;;;;;6.13;100.00;101546.53;683145;28;869;-59
2023/05/17 01:39:02;;;;;;;5.93;2.42;;;;;;;6.16;100.00;101543.13;681829;28;1463;-59
2023/05/17 01:39:23;;;;;;;5.97;2.37;;;;;;;6.15;100.00;101541.38;680927;29;1221;-59
2023/05/17 01:39:43;;;;;;;4.88;2.30;;;;;;;6.13;100.00;101550.84;681735;28;4367;-58
2023/05/17 01:40:06;;;;;;;5.93;2.30;;;;;;;6.12;100.00;101547.38;681646;28;1474;-58
2023/05/17 01:40:27;;;;;;;4.43;2.13;;;;;;;6.09;100.00;101544.69;685075;28;2112;-58
2023/05/17 01:41:07;;;;;;;5.70;2.20;;;;;;;6.04;100.00;101545.41;684546;28;1318;-59
2023/05/17 01:41:32;;;;;;;5.60;2.50;;;;;;;6.01;100.00;101543.59;684626;28;798;-59
2023/05/17 01:42:20;;;;;;;5.20;2.30;;;;;;;6.03;100.00;101543.63;687212;28;1595;-59
2023/05/17 01:42:43;;;;;;;5.63;2.00;;;;;;;6.04;100.00;101543.69;688915;28;4502;-59
2023/05/17 01:43:48;;;;;;;5.20;2.10;;;;;;;6.07;100.00;101546.34;688319;28;1922;-58
2023/05/17 01:44:28;;;;;;;4.55;2.05;;;;;;;6.09;100.00;101554.19;680752;29;1831;-59
2023/05/17 01:45:02;;;;;;;4.38;2.15;;;;;;;6.10;100.00;101548.16;678937;28;1515;-58
2023/05/17 01:45:30;;;;;;;4.90;2.15;;;;;;;6.08;100.00;101549.84;686463;28;945;-59
2023/05/17 01:46:12;;;;;;;6.13;2.20;;;;;;;6.05;100.00;101548.03;682682;28;4358;-58
2023/05/17 01:46:39;;;;;;;4.90;2.40;;;;;;;6.03;100.00;101557.50;686692;28;908;-59
2023/05/17 01:47:09;;;;;;;6.53;2.80;;;;;;;5.98;100.00;101551.28;685948;28;1485;-59
2023/05/17 01:47:55;;;;;;;5.38;2.35;;;;;;;5.97;100.00;101546.91;686542;28;1019;-58
2023/05/17 01:48:22;;;;;;;5.30;2.30;;;;;;;5.91;100.00;101549.31;681081;29;1406;-58
2023/05/17 01:48:51;;;;;;;5.65;2.15;;;;;;;5.90;100.00;101552.78;683490;28;4726;-59
2023/05/17 01:49:20;;;;;;;5.90;2.40;;;;;;;5.90;100.00;101550.19;684199;28;1339;-58
2023/05/17 01:49:47;;;;;;;5.03;2.20;;;;;;;5.89;100.00;101551.88;683282;28;1054;-58
2023/05/17 01:50:13;;;;;;;5.32;2.47;;;;;;;5.90;100.00;101553.63;684463;28;1535;-59
2023/05/17 01:50:35;;;;;;;5.30;2.40;;;;;;;5.90;100.00;101548.44;685264;28;929;-58
2023/05/17 01:50:58;;;;;;;5.30;2.20;;;;;;;5.91;100.00;101554.50;685398;28;1462;-59